createdAt,value
2022-12-11T00:02:01.200Z,98500.69
2022-12-11T00:05:08.557Z,98491.56
2022-12-11T00:08:12.075Z,98492.72
2022-12-11T00:11:15.981Z,98482.72
2022-12-11T00:14:18.576Z,98475.47
2022-12-11T00:17:20.526Z,98490.75
2022-12-11T00:20:27.875Z,98480.16
2022-12-11T00:23:30.307Z,98479.03
2022-12-11T00:26:33.707Z,98475.16
2022-12-11T00:29:36.474Z,98482.72
2022-12-11T00:32:38.733Z,98488.75
2022-12-11T00:35:43.471Z,98485.09
2022-12-11T00:38:45.841Z,98474.59
2022-12-11T00:41:48.091Z,98477.09
2022-12-11T00:44:50.957Z,98470.00
2022-12-11T00:47:53.319Z,98480.50
2022-12-11T00:50:55.548Z,98474.34
2022-12-11T00:53:57.634Z,98485.72
2022-12-11T00:57:02.785Z,98492.69
2022-12-11T01:00:07.346Z,98477.56
2022-12-11T01:03:15.432Z,98486.59
2022-12-11T01:06:21.461Z,98468.28
2022-12-11T01:09:42.854Z,98481.81
2022-12-11T01:12:44.899Z,98486.53
2022-12-11T01:15:47.386Z,98493.00
2022-12-11T01:18:50.614Z,98504.50
2022-12-11T01:21:52.457Z,98501.44
2022-12-11T01:24:56.658Z,98489.47
2022-12-11T01:28:00.409Z,98493.03
2022-12-11T01:31:03.392Z,98508.56
2022-12-11T01:34:05.445Z,98508.13
2022-12-11T01:37:08.034Z,98513.75
2022-12-11T01:40:14.586Z,98503.63
2022-12-11T01:43:19.045Z,98511.09
2022-12-11T01:46:22.583Z,98500.84
2022-12-11T01:49:29.167Z,98505.13
2022-12-11T01:52:34.314Z,98503.19
2022-12-11T01:55:39.283Z,98514.88
2022-12-11T01:58:49.056Z,98513.44
2022-12-11T02:02:01.390Z,98523.38
2022-12-11T02:05:05.603Z,98524.72
2022-12-11T02:08:08.711Z,98522.72
2022-12-11T02:11:21.479Z,98535.44
2022-12-11T02:14:26.437Z,98514.38
2022-12-11T02:17:46.803Z,98515.06
2022-12-11T02:20:58.627Z,98515.75
2022-12-11T02:24:19.202Z,98527.38
2022-12-11T02:27:45.552Z,98514.28
2022-12-11T02:30:51.909Z,98517.69
2022-12-11T02:34:03.000Z,98510.28
2022-12-11T02:37:09.763Z,98522.22
2022-12-11T02:40:15.187Z,98500.78
2022-12-11T02:43:22.418Z,98502.88
2022-12-11T02:46:25.844Z,98498.34
2022-12-11T02:49:32.810Z,98511.94
2022-12-11T02:52:39.423Z,98500.94
2022-12-11T02:55:42.970Z,98486.41
2022-12-11T02:58:58.474Z,98488.50
2022-12-11T03:02:01.723Z,98505.16
2022-12-11T03:05:04.860Z,98500.13
2022-12-11T03:08:07.142Z,98491.41
2022-12-11T03:11:13.563Z,98480.91
2022-12-11T03:14:16.003Z,98493.53
2022-12-11T03:17:30.890Z,98488.38
2022-12-11T03:20:42.044Z,98498.03
2022-12-11T03:23:53.984Z,98490.78
2022-12-11T03:27:01.415Z,98483.34
2022-12-11T03:30:08.797Z,98488.53
2022-12-11T03:33:15.969Z,98494.50
2022-12-11T03:36:22.585Z,98485.63
2022-12-11T03:39:32.196Z,98476.09
2022-12-11T03:42:35.523Z,98481.41
2022-12-11T03:45:39.314Z,98487.72
2022-12-11T03:48:44.953Z,98495.34
2022-12-11T03:51:50.544Z,98494.53
2022-12-11T03:54:55.127Z,98491.94
2022-12-11T03:57:57.146Z,98487.75
2022-12-11T04:00:59.568Z,98491.16
2022-12-11T04:04:02.296Z,98493.75
2022-12-11T04:07:05.453Z,98492.59
2022-12-11T04:10:07.704Z,98499.84
2022-12-11T04:13:11.084Z,98510.34
2022-12-11T04:16:14.467Z,98505.69
2022-12-11T04:19:36.022Z,98507.31
2022-12-11T04:22:56.597Z,98501.81
2022-12-11T04:26:25.401Z,98525.06
2022-12-11T04:29:27.304Z,98526.34
2022-12-11T04:32:30.934Z,98532.00
2022-12-11T04:35:33.391Z,98521.69
2022-12-11T04:38:37.968Z,98534.59
2022-12-11T04:41:41.652Z,98538.59
2022-12-11T04:44:43.856Z,98537.81
2022-12-11T04:47:46.005Z,98558.00
2022-12-11T04:50:48.015Z,98555.91
2022-12-11T04:53:50.002Z,98563.47
2022-12-11T04:56:52.156Z,98568.47
2022-12-11T04:59:54.406Z,98568.03
2022-12-11T05:02:56.419Z,98579.63
2022-12-11T05:05:58.739Z,98575.91
2022-12-11T05:09:01.142Z,98579.47
2022-12-11T05:12:03.746Z,98588.69
2022-12-11T05:15:06.712Z,98591.09
2022-12-11T05:18:08.980Z,98590.78
2022-12-11T05:21:13.476Z,98593.34
2022-12-11T05:24:15.490Z,98587.22
2022-12-11T05:27:17.689Z,98596.75
2022-12-11T05:30:20.859Z,98590.78
2022-12-11T05:33:22.721Z,98593.66
2022-12-11T05:36:30.762Z,98594.31
2022-12-11T05:39:32.787Z,98588.19
2022-12-11T05:42:35.208Z,98606.09
2022-12-11T05:45:37.871Z,98588.84
2022-12-11T05:48:41.458Z,98598.69
2022-12-11T05:51:44.053Z,98602.22
2022-12-11T05:54:49.671Z,98590.13
2022-12-11T05:57:52.013Z,98609.00
2022-12-11T06:00:54.782Z,98607.53
2022-12-11T06:03:58.677Z,98608.66
2022-12-11T06:07:00.989Z,98605.63
2022-12-11T06:10:03.395Z,98625.81
2022-12-11T06:13:06.167Z,98633.72
2022-12-11T06:16:10.696Z,98631.28
2022-12-11T06:19:18.757Z,98645.47
2022-12-11T06:22:20.928Z,98653.72
2022-12-11T06:25:24.287Z,98668.56
2022-12-11T06:28:26.857Z,98664.88
2022-12-11T06:31:29.054Z,98662.91
2022-12-11T06:34:31.464Z,98665.97
2022-12-11T06:37:35.111Z,98678.59
2022-12-11T06:40:37.148Z,98679.38
2022-12-11T06:43:43.864Z,98683.75
2022-12-11T06:46:45.907Z,98680.34
2022-12-11T06:49:50.939Z,98696.69
2022-12-11T06:52:53.193Z,98693.09
2022-12-11T06:55:55.235Z,98702.94
2022-12-11T06:58:57.333Z,98696.97
2022-12-11T07:02:00.224Z,98723.44
2022-12-11T07:05:02.767Z,98704.88
2022-12-11T07:08:05.128Z,98698.25
2022-12-11T07:11:13.181Z,98720.22
2022-12-11T07:14:15.337Z,98721.69
2022-12-11T07:17:17.412Z,98716.50
2022-12-11T07:20:20.356Z,98720.06
2022-12-11T07:23:22.708Z,98720.88
2022-12-11T07:26:24.809Z,98734.63
2022-12-11T07:29:26.957Z,98728.63
2022-12-11T07:32:29.771Z,98726.41
2022-12-11T07:35:34.019Z,98748.84
2022-12-11T07:38:36.586Z,98743.19
2022-12-11T07:41:39.398Z,98752.25
2022-12-11T07:44:41.370Z,98741.94
2022-12-11T07:47:43.345Z,98749.53
2022-12-11T07:50:45.682Z,98763.56
2022-12-11T07:53:49.792Z,98763.56
2022-12-11T07:56:53.832Z,98781.56
2022-12-11T07:59:56.233Z,98795.75
2022-12-11T08:02:58.707Z,98809.66
2022-12-11T08:06:00.654Z,98796.84
2022-12-11T08:09:05.997Z,98810.09
2022-12-11T08:12:08.536Z,98818.34
2022-12-11T08:15:11.303Z,98813.84
2022-12-11T08:18:13.661Z,98830.81
2022-12-11T08:21:22.382Z,98835.22
2022-12-11T08:24:24.540Z,98844.06
2022-12-11T08:27:26.993Z,98841.00
2022-12-11T08:30:29.223Z,98860.88
2022-12-11T08:33:31.619Z,98849.59
2022-12-11T08:36:33.730Z,98863.16
2022-12-11T08:39:36.740Z,98867.47
2022-12-11T08:42:39.202Z,98876.84
2022-12-11T08:45:41.291Z,98889.28
2022-12-11T08:48:44.327Z,98890.88
2022-12-11T08:51:47.709Z,98907.72
2022-12-11T08:54:49.861Z,98898.84
2022-12-11T08:57:51.807Z,98918.06
2022-12-11T09:00:53.721Z,98899.66
2022-12-11T09:03:57.063Z,98904.13
2022-12-11T09:06:59.005Z,98900.59
2022-12-11T09:10:01.175Z,98893.59
2022-12-11T09:13:03.362Z,98909.19
2022-12-11T09:16:08.280Z,98909.44
2022-12-11T09:19:14.369Z,98908.34
2022-12-11T09:22:16.885Z,98902.50
2022-12-11T09:25:19.111Z,98905.78
2022-12-11T09:28:21.668Z,98916.09
2022-12-11T09:31:34.912Z,98912.59
2022-12-11T09:34:36.685Z,98928.91
2022-12-11T09:37:38.478Z,98910.78
2022-12-11T09:40:43.500Z,98912.59
2022-12-11T09:44:07.917Z,98907.53
2022-12-11T09:47:18.812Z,98924.16
2022-12-11T09:50:32.858Z,98907.75
2022-12-11T09:53:36.703Z,98894.59
2022-12-11T09:56:54.397Z,98893.94
2022-12-11T10:00:37.487Z,98899.00
2022-12-11T10:04:29.127Z,98892.69
2022-12-11T10:07:33.583Z,98884.94
2022-12-11T10:10:44.359Z,98876.69
2022-12-11T10:14:11.631Z,98865.41
2022-12-11T10:17:23.801Z,98878.69
2022-12-11T10:20:35.174Z,98910.03
2022-12-11T10:23:55.080Z,98905.47
2022-12-11T10:26:59.791Z,98913.38
2022-12-11T10:30:22.309Z,98932.97
2022-12-11T10:33:37.241Z,98918.34
2022-12-11T10:36:42.050Z,98900.97
2022-12-11T10:39:44.020Z,98909.06
2022-12-11T10:42:55.779Z,98918.06
2022-12-11T10:45:58.360Z,98931.28
2022-12-11T10:49:01.325Z,98930.00
2022-12-11T10:52:24.763Z,98944.97
2022-12-11T10:55:44.087Z,98942.63
2022-12-11T10:58:50.367Z,98942.56
2022-12-11T11:01:52.643Z,98938.53
2022-12-11T11:04:56.304Z,98938.53
2022-12-11T11:08:10.677Z,98943.09
2022-12-11T11:11:33.987Z,98949.19
2022-12-11T11:14:36.348Z,98935.81
2022-12-11T11:17:54.586Z,98935.00
2022-12-11T11:20:58.502Z,98914.94
2022-12-11T11:24:00.989Z,98919.31
2022-12-11T11:27:13.184Z,98912.56
2022-12-11T11:30:35.892Z,98914.19
2022-12-11T11:33:49.776Z,98928.25
2022-12-11T11:37:00.995Z,98926.81
2022-12-11T11:40:19.368Z,98952.81
2022-12-11T11:43:37.039Z,98948.50
2022-12-11T11:46:44.897Z,98945.91
2022-12-11T11:49:53.256Z,98959.00
2022-12-11T11:53:03.597Z,98959.66
2022-12-11T11:56:05.496Z,98964.47
2022-12-11T11:59:17.917Z,98960.72
2022-12-11T12:02:20.973Z,98980.13
2022-12-11T12:05:29.445Z,98976.28
2022-12-11T12:08:54.382Z,98983.44
2022-12-11T12:12:05.168Z,98987.28
2022-12-11T12:15:28.057Z,98985.69
2022-12-11T12:19:07.210Z,98981.81
2022-12-11T12:22:21.238Z,98994.25
2022-12-11T12:25:29.677Z,98990.22
2022-12-11T12:28:52.033Z,98990.25
2022-12-11T12:32:26.760Z,98985.22
2022-12-11T12:35:36.550Z,98988.91
2022-12-11T12:38:56.172Z,98971.06
2022-12-11T12:42:11.561Z,98983.03
2022-12-11T12:45:17.078Z,99002.75
2022-12-11T12:48:21.260Z,98994.66
2022-12-11T12:51:23.982Z,99004.13
2022-12-11T12:54:27.961Z,99016.91
2022-12-11T12:57:31.236Z,99024.28
2022-12-11T13:00:39.720Z,99024.00
2022-12-11T13:03:53.412Z,99053.59
2022-12-11T13:06:56.994Z,99045.47
2022-12-11T13:10:01.070Z,99058.00
2022-12-11T13:13:05.605Z,99058.25
2022-12-11T13:16:17.128Z,99066.03
2022-12-11T13:19:24.292Z,99069.81
2022-12-11T13:22:26.902Z,99072.72
2022-12-11T13:25:31.960Z,99073.78
2022-12-11T13:28:40.116Z,99062.78
2022-12-11T13:31:45.600Z,99070.13
2022-12-11T13:35:05.906Z,99074.78
2022-12-11T13:38:17.118Z,99078.47
2022-12-11T13:41:20.489Z,99082.84
2022-12-11T13:44:32.969Z,99104.72
2022-12-11T13:47:36.241Z,99094.63
2022-12-11T13:50:44.305Z,99088.78
2022-12-11T13:53:47.516Z,99087.66
2022-12-11T13:56:59.900Z,99093.66
2022-12-11T14:00:04.666Z,99100.03
2022-12-11T14:03:10.216Z,99108.50
2022-12-11T14:06:18.781Z,99110.38
2022-12-11T14:09:25.959Z,99114.72
2022-12-11T14:12:32.028Z,99116.16
2022-12-11T14:15:36.343Z,99118.31
2022-12-11T14:18:38.794Z,99129.84
2022-12-11T14:21:40.964Z,99131.47
2022-12-11T14:24:53.218Z,99145.81
2022-12-11T14:27:57.040Z,99152.91
2022-12-11T14:31:09.073Z,99159.19
2022-12-11T14:34:36.750Z,99175.50
2022-12-11T14:37:39.932Z,99167.78
2022-12-11T14:40:45.770Z,99174.44
2022-12-11T14:43:56.931Z,99168.19
2022-12-11T14:47:06.757Z,99172.56
2022-12-11T14:50:23.704Z,99179.91
2022-12-11T14:53:29.476Z,99183.88
2022-12-11T14:56:32.667Z,99194.19
2022-12-11T14:59:41.527Z,99189.34
2022-12-11T15:02:58.478Z,99192.59
2022-12-11T15:06:24.554Z,99188.00
2022-12-11T15:09:28.973Z,99194.72
2022-12-11T15:12:31.979Z,99197.44
2022-12-11T15:15:45.117Z,99202.19
2022-12-11T15:18:53.304Z,99207.41
2022-12-11T15:22:01.320Z,99198.84
2022-12-11T15:25:04.294Z,99204.38
2022-12-11T15:28:30.452Z,99210.84
2022-12-11T15:31:37.933Z,99214.38
2022-12-11T15:35:26.464Z,99226.59
2022-12-11T15:38:37.739Z,99218.25
2022-12-11T15:41:42.202Z,99208.44
2022-12-11T15:44:44.965Z,99223.47
2022-12-11T15:47:49.322Z,99224.47
2022-12-11T15:50:51.537Z,99226.31
2022-12-11T15:53:54.112Z,99221.91
2022-12-11T15:56:56.735Z,99227.28
2022-12-11T15:59:59.194Z,99236.66
2022-12-11T16:03:01.111Z,99233.72
2022-12-11T16:06:04.241Z,99219.47
2022-12-11T16:09:06.288Z,99227.94
2022-12-11T16:12:09.016Z,99234.03
2022-12-11T16:15:21.665Z,99244.50
2022-12-11T16:18:26.727Z,99238.25
2022-12-11T16:21:29.346Z,99252.88
2022-12-11T16:24:32.594Z,99257.22
2022-12-11T16:27:36.152Z,99245.72
2022-12-11T16:30:38.888Z,99249.03
2022-12-11T16:33:41.547Z,99248.63
2022-12-11T16:36:44.252Z,99255.25
2022-12-11T16:39:47.082Z,99257.28
2022-12-11T16:42:50.166Z,99258.38
2022-12-11T16:45:56.223Z,99261.50
2022-12-11T16:48:58.467Z,99266.38
2022-12-11T16:52:00.926Z,99269.38
2022-12-11T16:55:04.312Z,99261.22
2022-12-11T16:58:07.690Z,99258.53
2022-12-11T17:01:15.387Z,99260.84
2022-12-11T17:04:18.325Z,99265.34
2022-12-11T17:07:21.158Z,99257.44
2022-12-11T17:10:23.313Z,99257.19
2022-12-11T17:13:25.465Z,99256.66
2022-12-11T17:16:30.996Z,99253.13
2022-12-11T17:19:33.354Z,99258.19
2022-12-11T17:22:36.588Z,99255.47
2022-12-11T17:25:44.881Z,99262.91
2022-12-11T17:28:47.770Z,99268.63
2022-12-11T17:31:49.955Z,99266.00
2022-12-11T17:34:52.107Z,99265.38
2022-12-11T17:37:56.159Z,99265.09
2022-12-11T17:41:00.602Z,99262.94
2022-12-11T17:44:03.857Z,99267.00
2022-12-11T17:47:10.634Z,99269.88
2022-12-11T17:50:13.678Z,99281.28
2022-12-11T17:53:17.779Z,99269.22
2022-12-11T17:56:20.042Z,99259.41
2022-12-11T17:59:22.099Z,99265.91
2022-12-11T18:02:24.961Z,99268.50
2022-12-11T18:05:27.503Z,99278.84
2022-12-11T18:08:30.511Z,99274.91
2022-12-11T18:11:33.189Z,99267.28
2022-12-11T18:14:35.734Z,99286.59
2022-12-11T18:17:37.890Z,99281.81
2022-12-11T18:20:42.309Z,99289.28
2022-12-11T18:23:45.345Z,99295.00
2022-12-11T18:26:48.869Z,99290.00
2022-12-11T18:29:51.639Z,99295.16
2022-12-11T18:32:53.649Z,99300.81
2022-12-11T18:35:56.941Z,99303.84
2022-12-11T18:39:00.326Z,99306.41
2022-12-11T18:42:31.670Z,99306.94
2022-12-11T18:45:25.448Z,99306.00
2022-12-11T18:48:27.843Z,99314.56
2022-12-11T18:51:30.358Z,99315.66
2022-12-11T18:54:32.627Z,99306.13
2022-12-11T18:57:37.589Z,99321.63
2022-12-11T19:00:41.432Z,99332.63
2022-12-11T19:03:44.353Z,99323.66
2022-12-11T19:06:46.714Z,99338.19
2022-12-11T19:09:48.971Z,99337.91
2022-12-11T19:12:52.545Z,99334.66
2022-12-11T19:15:55.488Z,99332.88
2022-12-11T19:19:06.405Z,99348.78
2022-12-11T19:22:09.360Z,99333.81
2022-12-11T19:25:14.134Z,99337.66
2022-12-11T19:28:17.448Z,99334.66
2022-12-11T19:31:23.057Z,99340.50
2022-12-11T19:34:28.803Z,99345.38
2022-12-11T19:37:31.512Z,99335.06
2022-12-11T19:40:35.504Z,99343.06
2022-12-11T19:43:38.267Z,99350.41
2022-12-11T19:46:41.520Z,99343.47
2022-12-11T19:49:44.228Z,99354.47
2022-12-11T19:52:47.004Z,99350.00
2022-12-11T19:55:52.786Z,99358.00
2022-12-11T19:58:55.080Z,99357.72
2022-12-11T20:01:57.737Z,99366.41
2022-12-11T20:04:59.962Z,99346.72
2022-12-11T20:08:35.339Z,99360.88
2022-12-11T20:11:25.460Z,99356.78
2022-12-11T20:14:28.052Z,99368.28
2022-12-11T20:17:30.756Z,99368.28
2022-12-11T20:20:34.173Z,99370.72
2022-12-11T20:23:36.760Z,99369.50
2022-12-11T20:26:39.610Z,99360.81
2022-12-11T20:29:41.881Z,99355.66
2022-12-11T20:32:44.479Z,99377.66
2022-12-11T20:35:46.781Z,99376.00
2022-12-11T20:38:53.469Z,99382.75
2022-12-11T20:41:56.036Z,99379.09
2022-12-11T20:44:58.632Z,99372.03
2022-12-11T20:48:01.435Z,99378.28
2022-12-11T20:51:06.044Z,99381.41
2022-12-11T20:54:10.378Z,99387.97
2022-12-11T20:57:14.047Z,99383.28
2022-12-11T21:00:21.013Z,99383.28
2022-12-11T21:03:23.730Z,99386.28
2022-12-11T21:06:31.329Z,99383.28
2022-12-11T21:09:34.485Z,99407.84
2022-12-11T21:12:38.353Z,99409.56
2022-12-11T21:15:41.520Z,99404.00
2022-12-11T21:18:44.442Z,99399.25
2022-12-11T21:21:47.963Z,99413.38
2022-12-11T21:24:50.007Z,99424.28
2022-12-11T21:27:56.007Z,99438.00
2022-12-11T21:31:01.715Z,99436.41
2022-12-11T21:34:04.621Z,99431.19
2022-12-11T21:37:06.863Z,99436.59
2022-12-11T21:40:10.447Z,99449.78
2022-12-11T21:43:12.620Z,99441.81
2022-12-11T21:46:17.429Z,99447.28
2022-12-11T21:49:20.725Z,99439.38
2022-12-11T21:52:22.905Z,99447.75
2022-12-11T21:55:25.152Z,99442.84
2022-12-11T21:58:27.170Z,99457.16
2022-12-11T22:01:33.732Z,99451.75
2022-12-11T22:04:37.037Z,99457.22
2022-12-11T22:07:39.394Z,99451.78
2022-12-11T22:10:43.778Z,99456.22
2022-12-11T22:13:45.872Z,99454.72
2022-12-11T22:16:48.023Z,99457.03
2022-12-11T22:19:52.081Z,99466.81
2022-12-11T22:22:54.000Z,99473.38
2022-12-11T22:25:56.266Z,99462.38
2022-12-11T22:28:58.629Z,99455.47
2022-12-11T22:32:00.730Z,99461.09
2022-12-11T22:35:03.175Z,99455.94
2022-12-11T22:38:05.538Z,99461.09
2022-12-11T22:41:31.158Z,99454.19
2022-12-11T22:44:34.079Z,99460.09
2022-12-11T22:47:37.438Z,99459.53
2022-12-11T22:50:43.173Z,99466.50
2022-12-11T22:53:46.277Z,99472.38
2022-12-11T22:56:48.496Z,99468.06
2022-12-11T22:59:52.396Z,99468.53
2022-12-11T23:02:54.450Z,99476.25
2022-12-11T23:05:58.758Z,99484.66
2022-12-11T23:09:04.166Z,99475.41
2022-12-11T23:12:06.438Z,99485.31
2022-12-11T23:15:09.461Z,99494.91
2022-12-11T23:18:11.590Z,99471.00
2022-12-11T23:21:13.836Z,99471.25
2022-12-11T23:24:15.995Z,99485.75
2022-12-11T23:27:19.267Z,99481.28
2022-12-11T23:30:21.645Z,99477.22
2022-12-11T23:33:23.988Z,99485.81
2022-12-11T23:36:29.082Z,99487.06
2022-12-11T23:39:31.453Z,99471.66
2022-12-11T23:42:33.962Z,99478.19
2022-12-11T23:45:36.361Z,99472.13
2022-12-11T23:48:38.505Z,99468.50
2022-12-11T23:51:40.455Z,99463.69
2022-12-11T23:54:42.620Z,99473.88
2022-12-11T23:57:44.669Z,99489.00
